KCKV/CKV METAR and TAF weather

Enter ICAO airport designator
Station Type Date Time Source
KCKV METAR 2018/01/22 10:52 UTC NOAA

KCKV 221052Z AUTO 17012G23KT 10SM CLR 15/06 A2985 RMK AO2 SLP104 T01500056


Station Type Date Time Source
KCKV Decoded METAR 2018/01/22 10:52 UTC NOAA

CLARKSVILLE OUTLAW FIELD, TN, United States (KCKV) 36-37N 87-25W 165M
Jan 22, 2018 - 05:52 AM EST / 2018.01.22 1052 UTC
Wind: from the S (170 degrees) at 14 MPH (12 KT) gusting to 26 MPH (23 KT):0
Visibility: 10 mile(s):0
Sky conditions: clear
Temperature: 59.0 F (15.0 C)
Dew Point: 42.1 F (5.6 C)
Relative Humidity: 53%
Pressure (altimeter): 29.85 in. Hg (1010 hPa)
ob: KCKV 221052Z AUTO 17012G23KT 10SM CLR 15/06 A2985 RMK AO2 SLP104 T01500056
cycle: 11

Station Type Date Time Source
KCKV TAF 2018/01/22 12:24 UTC NOAA

TAF KCKV 221121Z 2212/2312 17012G23KT P6SM FEW045 SCT090 BKN110
TEMPO 2213/2217 4SM -SHRA OVC035
FM221700 18015G23KT 6SM -SHRA OVC035
FM221900 19015G25KT 6SM -SHRA OVC015
FM222200 21014G22KT P6SM SCT050
FM231000 25012G20KT P6SM BKN045


Example: see airport list